Date,TemperatureHighF,TemperatureAvgF,TemperatureLowF,DewpointHighF,DewpointAvgF,DewpointLowF,HumidityHigh,HumidityAvg,HumidityLow,PressureMaxIn,PressureMinIn,WindSpeedMaxMPH,WindSpeedAvgMPH,GustSpeedMaxMPH,PrecipitationSumIn
2013-8-1,68,65,63,66,63,58,97,93,85,29.52,29.30,20,6,21,0.70
2013-8-2,66,62,57,60,57,54,93,84,74,29.55,29.27,30,14,30,0.19
2013-8-3,65,59,55,58,55,51,93,85,72,29.78,29.55,24,8,24,0.11
2013-8-4,68,62,56,58,55,50,94,79,53,29.80,29.75,15,5,15,0.02
2013-8-5,66,58,50,54,52,47,94,80,58,29.90,29.77,18,4,18,0.00
2013-8-6,66,59,55,57,55,51,96,86,63,29.89,29.78,14,3,14,0.09
2013-8-7,70,61,54,58,55,52,96,81,57,29.96,29.80,9,1,9,0.00
2013-8-8,69,61,55,61,58,53,97,89,73,29.96,29.80,21,6,21,0.07
2013-8-9,64,60,56,56,52,48,92,78,59,30.13,29.89,18,5,18,0.00
2013-8-10,63,60,54,58,54,51,94,82,68,30.13,30.01,20,5,20,0.00
2013-8-11,63,58,55,55,52,49,93,81,66,30.01,29.97,20,6,20,0.00
2013-8-12,66,59,54,54,50,43,92,75,49,30.08,29.97,19,5,19,0.00
2013-8-13,65,60,57,57,56,53,95,85,71,30.11,30.01,16,5,16,0.00
2013-8-14,65,62,60,63,61,57,98,96,85,30.01,29.86,19,7,19,0.13
2013-8-15,66,62,55,65,61,53,98,95,86,29.87,29.69,23,8,23,0.15
2013-8-16,66,61,54,60,57,52,95,86,74,29.85,29.74,26,8,26,0.10
2013-8-17,66,61,55,63,58,52,98,90,74,29.74,29.44,32,10,32,0.09
2013-8-18,63,58,53,54,52,48,94,82,62,29.84,29.55,23,6,23,0.03
2013-8-19,65,60,53,58,55,50,92,82,68,30.17,29.84,23,7,23,0.00
2013-8-20,66,62,59,62,58,56,97,87,73,30.17,29.98,24,8,24,0.01
2013-8-21,64,61,57,62,59,56,97,94,86,30.04,29.95,28,10,28,0.00
2013-8-22,71,61,56,62,58,54,98,89,71,30.03,29.78,13,4,13,0.02
2013-8-23,64,60,53,60,56,47,97,86,66,29.93,29.72,17,6,17,0.26
2013-8-24,63,58,53,61,55,49,97,90,79,29.95,29.81,18,4,18,0.13
2013-8-25,64,59,54,57,55,52,96,88,76,30.13,29.91,10,2,10,0.01
2013-8-26,62,59,56,60,56,53,98,92,85,30.13,30.05,14,2,14,0.00
2013-8-27,67,61,55,62,58,51,98,89,73,30.19,30.04,15,3,15,0.05
2013-8-28,65,59,54,60,54,50,97,84,71,30.19,30.04,18,5,18,0.00
2013-8-29,64,60,58,60,59,58,98,94,85,30.04,29.99,20,8,20,0.02
2013-8-30,64,60,52,61,56,45,98,89,70,30.20,29.88,27,8,27,0.02
2013-8-31,62,57,53,53,49,46,83,75,61,30.41,30.20,20,4,20,0.00